sensor_id;sensor_type;location;lat;lon;timestamp;temperature;humidity
17236;DHT22;8734;59.272;17.780;2023-04-01T00:01:10;-5.80;99.90
17236;DHT22;8734;59.272;17.780;2023-04-01T00:03:40;-5.80;99.90
17236;DHT22;8734;59.272;17.780;2023-04-01T00:06:11;-5.80;99.90
17236;DHT22;8734;59.272;17.780;2023-04-01T00:08:42;-5.80;99.90
17236;DHT22;8734;59.272;17.780;2023-04-01T00:11:11;-5.80;99.90
17236;DHT22;8734;59.272;17.780;2023-04-01T00:13:40;-5.80;99.90
17236;DHT22;8734;59.272;17.780;2023-04-01T00:16:08;-5.80;99.90
17236;DHT22;8734;59.272;17.780;2023-04-01T00:18:48;-5.90;99.90
17236;DHT22;8734;59.272;17.780;2023-04-01T00:21:17;-6.00;99.90
17236;DHT22;8734;59.272;17.780;2023-04-01T00:23:48;-6.00;99.90
17236;DHT22;8734;59.272;17.780;2023-04-01T00:26:17;-6.00;99.90
17236;DHT22;8734;59.272;17.780;2023-04-01T00:28:48;-6.00;99.90
17236;DHT22;8734;59.272;17.780;2023-04-01T00:31:18;-6.10;99.90
17236;DHT22;8734;59.272;17.780;2023-04-01T00:33:46;-6.10;99.90
17236;DHT22;8734;59.272;17.780;2023-04-01T00:36:17;-6.20;99.90
17236;DHT22;8734;59.272;17.780;2023-04-01T00:38:47;-6.20;99.90
17236;DHT22;8734;59.272;17.780;2023-04-01T00:41:16;-6.20;99.90
17236;DHT22;8734;59.272;17.780;2023-04-01T00:43:46;-6.20;99.90
17236;DHT22;8734;59.272;17.780;2023-04-01T00:46:15;-6.20;99.90
17236;DHT22;8734;59.272;17.780;2023-04-01T00:48:46;-6.30;99.90
17236;DHT22;8734;59.272;17.780;2023-04-01T00:51:18;-6.30;99.90
17236;DHT22;8734;59.272;17.780;2023-04-01T00:53:51;-6.30;99.90
17236;DHT22;8734;59.272;17.780;2023-04-01T00:56:24;-6.30;99.90
17236;DHT22;8734;59.272;17.780;2023-04-01T00:58:58;-6.30;99.90
17236;DHT22;8734;59.272;17.780;2023-04-01T01:01:29;-6.30;99.90
17236;DHT22;8734;59.272;17.780;2023-04-01T01:03:58;-6.40;99.90
17236;DHT22;8734;59.272;17.780;2023-04-01T01:06:39;-6.40;99.90
17236;DHT22;8734;59.272;17.780;2023-04-01T01:09:27;-6.40;99.90
17236;DHT22;8734;59.272;17.780;2023-04-01T01:12:02;-6.40;99.90
17236;DHT22;8734;59.272;17.780;2023-04-01T01:14:39;-6.40;99.90
17236;DHT22;8734;59.272;17.780;2023-04-01T01:17:13;-6.40;99.90
17236;DHT22;8734;59.272;17.780;2023-04-01T01:19:57;-6.40;99.90
17236;DHT22;8734;59.272;17.780;2023-04-01T01:25:59;-6.40;99.90
17236;DHT22;8734;59.272;17.780;2023-04-01T01:28:45;-6.40;99.90
17236;DHT22;8734;59.272;17.780;2023-04-01T01:31:22;-6.40;99.90
17236;DHT22;8734;59.272;17.780;2023-04-01T01:34:03;-6.40;99.90
17236;DHT22;8734;59.272;17.780;2023-04-01T01:36:37;-6.50;99.90
17236;DHT22;8734;59.272;17.780;2023-04-01T01:39:08;-6.50;99.90
17236;DHT22;8734;59.272;17.780;2023-04-01T01:41:38;-6.50;99.90
17236;DHT22;8734;59.272;17.780;2023-04-01T01:44:11;-6.40;99.90
17236;DHT22;8734;59.272;17.780;2023-04-01T01:46:41;-6.40;99.90
17236;DHT22;8734;59.272;17.780;2023-04-01T01:49:11;-6.40;99.90
17236;DHT22;8734;59.272;17.780;2023-04-01T01:51:42;-6.40;99.90
17236;DHT22;8734;59.272;17.780;2023-04-01T01:54:12;-6.50;99.90
17236;DHT22;8734;59.272;17.780;2023-04-01T01:56:41;-6.50;99.90
17236;DHT22;8734;59.272;17.780;2023-04-01T01:59:12;-6.50;99.90
17236;DHT22;8734;59.272;17.780;2023-04-01T02:01:44;-6.50;99.90
17236;DHT22;8734;59.272;17.780;2023-04-01T02:04:14;-6.50;99.90
17236;DHT22;8734;59.272;17.780;2023-04-01T02:06:47;-6.50;99.90
17236;DHT22;8734;59.272;17.780;2023-04-01T02:09:19;-6.60;99.90
17236;DHT22;8734;59.272;17.780;2023-04-01T02:11:50;-6.50;99.90
17236;DHT22;8734;59.272;17.780;2023-04-01T02:14:22;-6.40;99.90
17236;DHT22;8734;59.272;17.780;2023-04-01T02:16:55;-6.40;99.90
17236;DHT22;8734;59.272;17.780;2023-04-01T02:19:27;-6.50;99.90
17236;DHT22;8734;59.272;17.780;2023-04-01T02:22:01;-6.60;99.90
17236;DHT22;8734;59.272;17.780;2023-04-01T02:24:31;-6.60;99.90
17236;DHT22;8734;59.272;17.780;2023-04-01T02:27:01;-6.60;99.90
17236;DHT22;8734;59.272;17.780;2023-04-01T02:29:30;-6.60;99.90
17236;DHT22;8734;59.272;17.780;2023-04-01T02:31:58;-6.60;99.90
17236;DHT22;8734;59.272;17.780;2023-04-01T02:34:28;-6.70;99.90
17236;DHT22;8734;59.272;17.780;2023-04-01T02:36:58;-6.60;99.90
17236;DHT22;8734;59.272;17.780;2023-04-01T02:39:27;-6.60;99.90
17236;DHT22;8734;59.272;17.780;2023-04-01T02:41:56;-6.70;99.90
17236;DHT22;8734;59.272;17.780;2023-04-01T02:44:24;-6.60;99.90
17236;DHT22;8734;59.272;17.780;2023-04-01T02:46:52;-6.50;99.90
17236;DHT22;8734;59.272;17.780;2023-04-01T02:49:20;-6.30;99.90
17236;DHT22;8734;59.272;17.780;2023-04-01T02:51:49;-6.30;99.90
17236;DHT22;8734;59.272;17.780;2023-04-01T02:54:20;-6.20;99.90
17236;DHT22;8734;59.272;17.780;2023-04-01T02:56:49;-6.10;99.90
17236;DHT22;8734;59.272;17.780;2023-04-01T02:59:17;-6.00;99.90
17236;DHT22;8734;59.272;17.780;2023-04-01T03:01:45;-6.00;99.90
17236;DHT22;8734;59.272;17.780;2023-04-01T03:04:15;-6.00;99.90
17236;DHT22;8734;59.272;17.780;2023-04-01T03:06:43;-5.90;99.90
17236;DHT22;8734;59.272;17.780;2023-04-01T03:09:11;-5.90;99.90
17236;DHT22;8734;59.272;17.780;2023-04-01T03:11:41;-6.00;99.90
17236;DHT22;8734;59.272;17.780;2023-04-01T03:14:10;-6.20;99.90
17236;DHT22;8734;59.272;17.780;2023-04-01T03:16:38;-6.20;99.90
17236;DHT22;8734;59.272;17.780;2023-04-01T03:19:07;-6.30;99.90
17236;DHT22;8734;59.272;17.780;2023-04-01T03:21:35;-6.30;99.90
17236;DHT22;8734;59.272;17.780;2023-04-01T03:24:04;-6.30;99.90
17236;DHT22;8734;59.272;17.780;2023-04-01T03:26:33;-6.30;99.90
17236;DHT22;8734;59.272;17.780;2023-04-01T03:29:02;-6.40;99.90
17236;DHT22;8734;59.272;17.780;2023-04-01T03:31:31;-6.30;99.90
17236;DHT22;8734;59.272;17.780;2023-04-01T03:34:00;-6.30;99.90
17236;DHT22;8734;59.272;17.780;2023-04-01T03:36:29;-6.40;99.90
17236;DHT22;8734;59.272;17.780;2023-04-01T03:38:57;-6.40;99.90
17236;DHT22;8734;59.272;17.780;2023-04-01T03:41:26;-6.40;99.90
17236;DHT22;8734;59.272;17.780;2023-04-01T03:43:54;-6.40;99.90
17236;DHT22;8734;59.272;17.780;2023-04-01T03:46:24;-6.50;99.90
17236;DHT22;8734;59.272;17.780;2023-04-01T03:48:52;-6.50;99.90
17236;DHT22;8734;59.272;17.780;2023-04-01T03:51:20;-6.50;99.90
17236;DHT22;8734;59.272;17.780;2023-04-01T03:53:49;-6.60;99.90
17236;DHT22;8734;59.272;17.780;2023-04-01T03:56:18;-6.60;99.90
17236;DHT22;8734;59.272;17.780;2023-04-01T03:58:46;-6.60;99.90
17236;DHT22;8734;59.272;17.780;2023-04-01T04:01:16;-6.60;99.90
17236;DHT22;8734;59.272;17.780;2023-04-01T04:03:47;-6.70;99.90
17236;DHT22;8734;59.272;17.780;2023-04-01T04:06:18;-6.70;99.90
17236;DHT22;8734;59.272;17.780;2023-04-01T04:08:47;-6.70;99.90
17236;DHT22;8734;59.272;17.780;2023-04-01T04:11:15;-6.80;99.90
17236;DHT22;8734;59.272;17.780;2023-04-01T04:13:44;-6.80;99.90
17236;DHT22;8734;59.272;17.780;2023-04-01T04:16:12;-6.80;99.90
17236;DHT22;8734;59.272;17.780;2023-04-01T04:18:41;-6.80;99.90
17236;DHT22;8734;59.272;17.780;2023-04-01T04:21:14;-6.80;99.90
17236;DHT22;8734;59.272;17.780;2023-04-01T04:23:43;-6.70;99.90
17236;DHT22;8734;59.272;17.780;2023-04-01T04:26:13;-6.70;99.90
17236;DHT22;8734;59.272;17.780;2023-04-01T04:28:42;-6.70;99.90
17236;DHT22;8734;59.272;17.780;2023-04-01T04:31:10;-6.70;99.90
17236;DHT22;8734;59.272;17.780;2023-04-01T04:33:39;-6.70;99.90
17236;DHT22;8734;59.272;17.780;2023-04-01T04:36:07;-6.70;99.90
17236;DHT22;8734;59.272;17.780;2023-04-01T04:38:37;-6.60;99.90
17236;DHT22;8734;59.272;17.780;2023-04-01T04:41:09;-6.40;99.90
17236;DHT22;8734;59.272;17.780;2023-04-01T04:43:38;-6.10;99.90
17236;DHT22;8734;59.272;17.780;2023-04-01T04:46:07;-5.80;99.90
17236;DHT22;8734;59.272;17.780;2023-04-01T04:48:37;-5.90;99.90
17236;DHT22;8734;59.272;17.780;2023-04-01T04:51:05;-6.00;99.90
17236;DHT22;8734;59.272;17.780;2023-04-01T04:53:33;-6.00;99.90
17236;DHT22;8734;59.272;17.780;2023-04-01T04:56:03;-6.10;99.90
17236;DHT22;8734;59.272;17.780;2023-04-01T04:58:31;-6.20;99.90
17236;DHT22;8734;59.272;17.780;2023-04-01T05:01:06;-6.20;99.90
17236;DHT22;8734;59.272;17.780;2023-04-01T05:03:34;-6.30;99.90
17236;DHT22;8734;59.272;17.780;2023-04-01T05:06:03;-6.30;99.90
17236;DHT22;8734;59.272;17.780;2023-04-01T05:08:32;-6.40;99.90
17236;DHT22;8734;59.272;17.780;2023-04-01T05:11:00;-6.40;99.90
17236;DHT22;8734;59.272;17.780;2023-04-01T05:13:30;-6.30;99.90
17236;DHT22;8734;59.272;17.780;2023-04-01T05:15:58;-6.30;99.90
17236;DHT22;8734;59.272;17.780;2023-04-01T05:18:27;-6.30;99.90
17236;DHT22;8734;59.272;17.780;2023-04-01T05:20:55;-6.30;99.90
17236;DHT22;8734;59.272;17.780;2023-04-01T05:23:24;-6.30;99.90
17236;DHT22;8734;59.272;17.780;2023-04-01T05:25:52;-6.30;99.90
17236;DHT22;8734;59.272;17.780;2023-04-01T05:28:21;-6.20;99.90
17236;DHT22;8734;59.272;17.780;2023-04-01T05:30:51;-6.10;99.90
17236;DHT22;8734;59.272;17.780;2023-04-01T05:33:19;-6.10;99.90
17236;DHT22;8734;59.272;17.780;2023-04-01T05:35:47;-6.00;99.90
17236;DHT22;8734;59.272;17.780;2023-04-01T05:38:16;-6.00;99.90
17236;DHT22;8734;59.272;17.780;2023-04-01T05:40:44;-5.90;99.90
17236;DHT22;8734;59.272;17.780;2023-04-01T05:43:12;-5.60;99.90
17236;DHT22;8734;59.272;17.780;2023-04-01T05:45:41;-5.60;99.90
17236;DHT22;8734;59.272;17.780;2023-04-01T05:48:11;-5.40;99.90
17236;DHT22;8734;59.272;17.780;2023-04-01T05:50:40;-5.40;99.90
17236;DHT22;8734;59.272;17.780;2023-04-01T05:53:11;-5.20;99.90
17236;DHT22;8734;59.272;17.780;2023-04-01T05:55:39;-4.90;99.90
17236;DHT22;8734;59.272;17.780;2023-04-01T05:58:07;-4.80;99.90
17236;DHT22;8734;59.272;17.780;2023-04-01T06:00:35;-4.40;99.90
17236;DHT22;8734;59.272;17.780;2023-04-01T06:03:04;-3.90;99.90
17236;DHT22;8734;59.272;17.780;2023-04-01T06:05:39;-3.50;99.90
17236;DHT22;8734;59.272;17.780;2023-04-01T06:08:11;-3.30;99.90
17236;DHT22;8734;59.272;17.780;2023-04-01T06:10:51;-3.10;99.90
17236;DHT22;8734;59.272;17.780;2023-04-01T06:13:30;-3.00;99.90
17236;DHT22;8734;59.272;17.780;2023-04-01T06:16:04;-2.80;99.90
17236;DHT22;8734;59.272;17.780;2023-04-01T06:19:05;-2.80;99.90
17236;DHT22;8734;59.272;17.780;2023-04-01T06:24:57;-2.60;99.90
17236;DHT22;8734;59.272;17.780;2023-04-01T06:27:42;-2.50;99.90
17236;DHT22;8734;59.272;17.780;2023-04-01T06:30:30;-2.50;99.90
17236;DHT22;8734;59.272;17.780;2023-04-01T06:33:27;-2.30;99.90
17236;DHT22;8734;59.272;17.780;2023-04-01T06:36:21;-2.20;99.90
17236;DHT22;8734;59.272;17.780;2023-04-01T06:39:18;-2.10;99.90
17236;DHT22;8734;59.272;17.780;2023-04-01T06:42:06;-1.90;99.90
17236;DHT22;8734;59.272;17.780;2023-04-01T06:44:43;-1.80;99.90
17236;DHT22;8734;59.272;17.780;2023-04-01T06:47:27;-1.70;99.90
17236;DHT22;8734;59.272;17.780;2023-04-01T06:50:03;-1.50;99.90
17236;DHT22;8734;59.272;17.780;2023-04-01T06:52:40;-1.30;99.90
17236;DHT22;8734;59.272;17.780;2023-04-01T06:55:23;-1.20;99.90
17236;DHT22;8734;59.272;17.780;2023-04-01T06:57:56;-1.10;99.90
17236;DHT22;8734;59.272;17.780;2023-04-01T07:00:29;-1.00;99.90
17236;DHT22;8734;59.272;17.780;2023-04-01T07:03:05;-0.90;99.90
17236;DHT22;8734;59.272;17.780;2023-04-01T07:05:34;-0.80;99.90
17236;DHT22;8734;59.272;17.780;2023-04-01T07:08:08;-0.70;99.90
17236;DHT22;8734;59.272;17.780;2023-04-01T07:10:43;-0.60;99.90
17236;DHT22;8734;59.272;17.780;2023-04-01T07:13:17;-0.50;99.90
17236;DHT22;8734;59.272;17.780;2023-04-01T07:15:54;-0.30;99.90
17236;DHT22;8734;59.272;17.780;2023-04-01T07:18:30;-0.30;99.90
17236;DHT22;8734;59.272;17.780;2023-04-01T07:21:01;-0.20;99.90
17236;DHT22;8734;59.272;17.780;2023-04-01T07:23:35;-0.20;99.90
17236;DHT22;8734;59.272;17.780;2023-04-01T07:26:16;-0.10;99.90
17236;DHT22;8734;59.272;17.780;2023-04-01T07:28:45;0.00;99.90
17236;DHT22;8734;59.272;17.780;2023-04-01T07:31:25;0.10;99.90
17236;DHT22;8734;59.272;17.780;2023-04-01T07:34:03;0.30;99.90
17236;DHT22;8734;59.272;17.780;2023-04-01T07:36:38;0.50;99.90
17236;DHT22;8734;59.272;17.780;2023-04-01T07:39:16;0.70;99.90
17236;DHT22;8734;59.272;17.780;2023-04-01T07:41:52;0.90;99.90
17236;DHT22;8734;59.272;17.780;2023-04-01T07:44:28;1.20;99.90
17236;DHT22;8734;59.272;17.780;2023-04-01T07:47:08;1.40;99.90
17236;DHT22;8734;59.272;17.780;2023-04-01T07:49:48;1.60;99.90
17236;DHT22;8734;59.272;17.780;2023-04-01T07:52:21;2.00;99.90
17236;DHT22;8734;59.272;17.780;2023-04-01T07:54:57;2.20;99.90
17236;DHT22;8734;59.272;17.780;2023-04-01T07:57:33;2.70;99.90
17236;DHT22;8734;59.272;17.780;2023-04-01T08:00:09;3.40;99.90
17236;DHT22;8734;59.272;17.780;2023-04-01T08:02:55;4.00;99.90
17236;DHT22;8734;59.272;17.780;2023-04-01T08:05:30;4.10;99.90
17236;DHT22;8734;59.272;17.780;2023-04-01T08:08:06;4.70;99.90
17236;DHT22;8734;59.272;17.780;2023-04-01T08:10:40;5.10;99.90
17236;DHT22;8734;59.272;17.780;2023-04-01T08:13:18;4.80;99.90
17236;DHT22;8734;59.272;17.780;2023-04-01T08:15:55;5.00;99.90
17236;DHT22;8734;59.272;17.780;2023-04-01T08:18:34;5.50;99.90
17236;DHT22;8734;59.272;17.780;2023-04-01T08:21:09;6.30;99.90
17236;DHT22;8734;59.272;17.780;2023-04-01T08:23:41;6.50;99.90
17236;DHT22;8734;59.272;17.780;2023-04-01T08:26:17;6.50;99.90
17236;DHT22;8734;59.272;17.780;2023-04-01T08:28:55;6.70;99.90
17236;DHT22;8734;59.272;17.780;2023-04-01T08:31:30;6.70;99.90
17236;DHT22;8734;59.272;17.780;2023-04-01T08:34:01;6.40;99.90
17236;DHT22;8734;59.272;17.780;2023-04-01T08:36:35;5.90;99.90
17236;DHT22;8734;59.272;17.780;2023-04-01T08:39:06;6.00;99.90
17236;DHT22;8734;59.272;17.780;2023-04-01T08:45:04;6.20;99.90
17236;DHT22;8734;59.272;17.780;2023-04-01T08:47:54;6.80;99.90
17236;DHT22;8734;59.272;17.780;2023-04-01T08:50:43;7.00;99.90
17236;DHT22;8734;59.272;17.780;2023-04-01T08:53:24;7.40;99.90
17236;DHT22;8734;59.272;17.780;2023-04-01T08:56:05;7.60;99.90
17236;DHT22;8734;59.272;17.780;2023-04-01T09:04:47;8.50;99.90
17236;DHT22;8734;59.272;17.780;2023-04-01T09:07:31;7.90;99.90
17236;DHT22;8734;59.272;17.780;2023-04-01T09:10:24;7.80;99.90
17236;DHT22;8734;59.272;17.780;2023-04-01T09:13:29;7.60;99.90
17236;DHT22;8734;59.272;17.780;2023-04-01T09:16:28;8.10;99.90
17236;DHT22;8734;59.272;17.780;2023-04-01T09:19:26;7.90;99.90
17236;DHT22;8734;59.272;17.780;2023-04-01T09:22:09;7.80;99.90
17236;DHT22;8734;59.272;17.780;2023-04-01T09:27:57;7.80;99.90
17236;DHT22;8734;59.272;17.780;2023-04-01T09:30:40;7.90;99.90
17236;DHT22;8734;59.272;17.780;2023-04-01T09:36:34;8.40;99.90
17236;DHT22;8734;59.272;17.780;2023-04-01T09:39:23;9.40;99.90
17236;DHT22;8734;59.272;17.780;2023-04-01T09:42:10;9.80;99.90
17236;DHT22;8734;59.272;17.780;2023-04-01T09:44:45;8.80;99.90
17236;DHT22;8734;59.272;17.780;2023-04-01T09:47:34;8.50;99.90
17236;DHT22;8734;59.272;17.780;2023-04-01T09:50:30;8.30;99.90
17236;DHT22;8734;59.272;17.780;2023-04-01T09:53:11;8.30;99.90
17236;DHT22;8734;59.272;17.780;2023-04-01T10:05:33;8.20;99.90
17236;DHT22;8734;59.272;17.780;2023-04-01T10:11:44;9.20;99.90
17236;DHT22;8734;59.272;17.780;2023-04-01T10:14:45;10.40;99.90
17236;DHT22;8734;59.272;17.780;2023-04-01T10:17:48;11.90;99.90
17236;DHT22;8734;59.272;17.780;2023-04-01T10:20:39;12.40;99.90
17236;DHT22;8734;59.272;17.780;2023-04-01T10:23:40;10.50;99.90
17236;DHT22;8734;59.272;17.780;2023-04-01T10:26:53;10.00;99.90
17236;DHT22;8734;59.272;17.780;2023-04-01T10:29:57;11.10;99.90
17236;DHT22;8734;59.272;17.780;2023-04-01T10:42:23;12.80;99.90
17236;DHT22;8734;59.272;17.780;2023-04-01T10:48:31;13.40;99.90
17236;DHT22;8734;59.272;17.780;2023-04-01T10:51:14;12.60;99.90
17236;DHT22;8734;59.272;17.780;2023-04-01T10:54:02;12.70;99.90
17236;DHT22;8734;59.272;17.780;2023-04-01T10:56:43;12.40;99.90
17236;DHT22;8734;59.272;17.780;2023-04-01T11:09:19;6.80;99.90
17236;DHT22;8734;59.272;17.780;2023-04-01T11:15:15;6.70;99.90
17236;DHT22;8734;59.272;17.780;2023-04-01T11:21:33;7.00;99.90
17236;DHT22;8734;59.272;17.780;2023-04-01T11:24:32;6.70;99.90
17236;DHT22;8734;59.272;17.780;2023-04-01T11:27:13;6.50;99.90
17236;DHT22;8734;59.272;17.780;2023-04-01T11:30:23;6.40;99.90
17236;DHT22;8734;59.272;17.780;2023-04-01T11:33:00;6.40;99.90
17236;DHT22;8734;59.272;17.780;2023-04-01T11:38:38;6.50;99.90
17236;DHT22;8734;59.272;17.780;2023-04-01T11:41:19;6.80;99.90
17236;DHT22;8734;59.272;17.780;2023-04-01T11:47:03;6.60;99.90
17236;DHT22;8734;59.272;17.780;2023-04-01T11:49:46;7.00;99.90
17236;DHT22;8734;59.272;17.780;2023-04-01T11:52:21;7.30;99.90
17236;DHT22;8734;59.272;17.780;2023-04-01T11:55:06;7.60;99.90
17236;DHT22;8734;59.272;17.780;2023-04-01T11:57:51;7.80;99.90
17236;DHT22;8734;59.272;17.780;2023-04-01T12:03:47;9.80;99.90
17236;DHT22;8734;59.272;17.780;2023-04-01T12:06:25;10.10;99.90
17236;DHT22;8734;59.272;17.780;2023-04-01T12:09:04;11.00;99.90
17236;DHT22;8734;59.272;17.780;2023-04-01T12:11:44;12.00;99.90
17236;DHT22;8734;59.272;17.780;2023-04-01T12:14:19;11.70;99.90
17236;DHT22;8734;59.272;17.780;2023-04-01T12:16:56;12.20;99.50
17236;DHT22;8734;59.272;17.780;2023-04-01T12:19:33;10.70;99.90
17236;DHT22;8734;59.272;17.780;2023-04-01T12:22:29;8.60;99.90
17236;DHT22;8734;59.272;17.780;2023-04-01T12:25:19;7.30;99.90
17236;DHT22;8734;59.272;17.780;2023-04-01T12:28:03;6.90;99.90
17236;DHT22;8734;59.272;17.780;2023-04-01T12:30:48;7.10;99.90
17236;DHT22;8734;59.272;17.780;2023-04-01T12:36:24;11.20;99.90
17236;DHT22;8734;59.272;17.780;2023-04-01T12:39:17;13.40;99.40
17236;DHT22;8734;59.272;17.780;2023-04-01T12:41:51;13.60;97.90
17236;DHT22;8734;59.272;17.780;2023-04-01T12:44:30;14.80;93.70
17236;DHT22;8734;59.272;17.780;2023-04-01T12:47:16;14.20;92.70
17236;DHT22;8734;59.272;17.780;2023-04-01T12:50:10;14.60;91.90
17236;DHT22;8734;59.272;17.780;2023-04-01T12:52:52;15.00;92.10
17236;DHT22;8734;59.272;17.780;2023-04-01T12:55:37;16.10;88.30
17236;DHT22;8734;59.272;17.780;2023-04-01T12:58:37;14.00;91.60
17236;DHT22;8734;59.272;17.780;2023-04-01T13:01:46;13.40;92.10
17236;DHT22;8734;59.272;17.780;2023-04-01T13:04:49;13.90;91.20
17236;DHT22;8734;59.272;17.780;2023-04-01T13:07:50;13.60;91.60
17236;DHT22;8734;59.272;17.780;2023-04-01T13:10:31;13.40;91.20
17236;DHT22;8734;59.272;17.780;2023-04-01T13:13:29;13.40;91.50
17236;DHT22;8734;59.272;17.780;2023-04-01T13:16:07;14.70;91.40
17236;DHT22;8734;59.272;17.780;2023-04-01T13:18:49;12.50;91.30
17236;DHT22;8734;59.272;17.780;2023-04-01T13:21:30;11.10;94.80
17236;DHT22;8734;59.272;17.780;2023-04-01T13:24:09;9.20;96.40
17236;DHT22;8734;59.272;17.780;2023-04-01T13:26:47;7.40;99.90
17236;DHT22;8734;59.272;17.780;2023-04-01T13:29:23;6.80;99.90
17236;DHT22;8734;59.272;17.780;2023-04-01T13:32:12;6.40;99.90
17236;DHT22;8734;59.272;17.780;2023-04-01T13:34:52;6.20;99.90
17236;DHT22;8734;59.272;17.780;2023-04-01T13:37:32;6.30;99.90
17236;DHT22;8734;59.272;17.780;2023-04-01T13:40:27;6.20;99.90
17236;DHT22;8734;59.272;17.780;2023-04-01T13:43:04;6.00;99.90
17236;DHT22;8734;59.272;17.780;2023-04-01T13:45:42;6.00;99.90
17236;DHT22;8734;59.272;17.780;2023-04-01T13:54:40;6.00;99.90
17236;DHT22;8734;59.272;17.780;2023-04-01T13:57:32;6.00;99.90
17236;DHT22;8734;59.272;17.780;2023-04-01T14:00:19;5.90;99.90
17236;DHT22;8734;59.272;17.780;2023-04-01T14:03:21;5.90;99.90
17236;DHT22;8734;59.272;17.780;2023-04-01T14:06:05;5.80;99.90
17236;DHT22;8734;59.272;17.780;2023-04-01T14:08:54;5.90;99.90
17236;DHT22;8734;59.272;17.780;2023-04-01T14:11:30;6.00;99.90
17236;DHT22;8734;59.272;17.780;2023-04-01T14:14:11;6.00;99.90
17236;DHT22;8734;59.272;17.780;2023-04-01T14:17:02;6.00;99.90
17236;DHT22;8734;59.272;17.780;2023-04-01T14:22:39;6.00;99.90
17236;DHT22;8734;59.272;17.780;2023-04-01T14:28:28;5.90;99.90
17236;DHT22;8734;59.272;17.780;2023-04-01T14:31:13;5.80;99.90
17236;DHT22;8734;59.272;17.780;2023-04-01T14:33:51;6.00;99.90
17236;DHT22;8734;59.272;17.780;2023-04-01T14:36:48;5.90;99.90
17236;DHT22;8734;59.272;17.780;2023-04-01T14:39:29;5.90;99.90
17236;DHT22;8734;59.272;17.780;2023-04-01T14:42:14;6.10;99.90
17236;DHT22;8734;59.272;17.780;2023-04-01T14:45:02;6.20;99.90
17236;DHT22;8734;59.272;17.780;2023-04-01T14:47:44;6.50;99.90
17236;DHT22;8734;59.272;17.780;2023-04-01T14:50:17;7.70;99.90
17236;DHT22;8734;59.272;17.780;2023-04-01T14:52:55;8.40;99.90
17236;DHT22;8734;59.272;17.780;2023-04-01T14:55:31;8.60;99.90
17236;DHT22;8734;59.272;17.780;2023-04-01T14:58:12;8.30;99.90
17236;DHT22;8734;59.272;17.780;2023-04-01T15:01:00;7.90;99.90
17236;DHT22;8734;59.272;17.780;2023-04-01T15:03:40;7.50;99.90
17236;DHT22;8734;59.272;17.780;2023-04-01T15:06:39;7.30;99.90
17236;DHT22;8734;59.272;17.780;2023-04-01T15:09:19;7.40;99.90
17236;DHT22;8734;59.272;17.780;2023-04-01T15:11:56;7.20;99.90
17236;DHT22;8734;59.272;17.780;2023-04-01T15:15:01;7.10;99.90
17236;DHT22;8734;59.272;17.780;2023-04-01T15:17:47;7.00;99.90
17236;DHT22;8734;59.272;17.780;2023-04-01T15:20:36;6.90;99.90
17236;DHT22;8734;59.272;17.780;2023-04-01T15:23:23;6.70;99.90
17236;DHT22;8734;59.272;17.780;2023-04-01T15:26:11;6.30;99.90
17236;DHT22;8734;59.272;17.780;2023-04-01T15:28:47;6.10;99.90
17236;DHT22;8734;59.272;17.780;2023-04-01T15:31:24;6.00;99.90
17236;DHT22;8734;59.272;17.780;2023-04-01T15:34:15;5.80;99.90
17236;DHT22;8734;59.272;17.780;2023-04-01T15:36:53;5.90;99.90
17236;DHT22;8734;59.272;17.780;2023-04-01T15:39:35;5.90;99.90
17236;DHT22;8734;59.272;17.780;2023-04-01T15:42:21;5.80;99.90
17236;DHT22;8734;59.272;17.780;2023-04-01T15:45:17;5.80;99.90
17236;DHT22;8734;59.272;17.780;2023-04-01T15:47:55;5.60;99.90
17236;DHT22;8734;59.272;17.780;2023-04-01T15:53:36;5.40;99.90
17236;DHT22;8734;59.272;17.780;2023-04-01T15:56:19;5.30;99.90
17236;DHT22;8734;59.272;17.780;2023-04-01T15:59:06;5.20;99.90
17236;DHT22;8734;59.272;17.780;2023-04-01T16:01:45;5.10;99.90
17236;DHT22;8734;59.272;17.780;2023-04-01T16:04:28;4.90;99.90
17236;DHT22;8734;59.272;17.780;2023-04-01T16:07:08;4.90;99.90
17236;DHT22;8734;59.272;17.780;2023-04-01T16:09:59;4.80;99.90
17236;DHT22;8734;59.272;17.780;2023-04-01T16:12:42;4.70;99.90
17236;DHT22;8734;59.272;17.780;2023-04-01T16:15:21;4.60;99.90
17236;DHT22;8734;59.272;17.780;2023-04-01T16:18:17;4.50;99.90
17236;DHT22;8734;59.272;17.780;2023-04-01T16:20:55;4.50;99.90
17236;DHT22;8734;59.272;17.780;2023-04-01T16:23:29;4.50;99.90
17236;DHT22;8734;59.272;17.780;2023-04-01T16:26:08;4.40;99.90
17236;DHT22;8734;59.272;17.780;2023-04-01T16:28:42;4.40;99.90
17236;DHT22;8734;59.272;17.780;2023-04-01T16:31:16;4.30;99.90
17236;DHT22;8734;59.272;17.780;2023-04-01T16:33:55;4.20;99.90
17236;DHT22;8734;59.272;17.780;2023-04-01T16:36:28;4.10;99.90
17236;DHT22;8734;59.272;17.780;2023-04-01T16:39:17;4.00;99.90
17236;DHT22;8734;59.272;17.780;2023-04-01T16:41:51;4.00;99.90
17236;DHT22;8734;59.272;17.780;2023-04-01T16:44:23;3.90;99.90
17236;DHT22;8734;59.272;17.780;2023-04-01T16:46:52;3.80;99.90
17236;DHT22;8734;59.272;17.780;2023-04-01T16:49:33;3.80;99.90
17236;DHT22;8734;59.272;17.780;2023-04-01T16:52:16;3.80;99.90
17236;DHT22;8734;59.272;17.780;2023-04-01T16:54:50;3.70;99.90
17236;DHT22;8734;59.272;17.780;2023-04-01T16:57:26;3.70;99.90
17236;DHT22;8734;59.272;17.780;2023-04-01T17:00:03;3.70;99.90
17236;DHT22;8734;59.272;17.780;2023-04-01T17:02:37;3.60;99.90
17236;DHT22;8734;59.272;17.780;2023-04-01T17:05:09;3.50;99.90
17236;DHT22;8734;59.272;17.780;2023-04-01T17:07:46;3.40;99.90
17236;DHT22;8734;59.272;17.780;2023-04-01T17:10:37;3.40;99.90
17236;DHT22;8734;59.272;17.780;2023-04-01T17:13:26;3.20;99.90
17236;DHT22;8734;59.272;17.780;2023-04-01T17:16:05;3.10;99.90
17236;DHT22;8734;59.272;17.780;2023-04-01T17:18:42;2.90;99.90
17236;DHT22;8734;59.272;17.780;2023-04-01T17:21:16;2.90;99.90
17236;DHT22;8734;59.272;17.780;2023-04-01T17:23:50;2.80;99.90
17236;DHT22;8734;59.272;17.780;2023-04-01T17:26:28;2.70;99.90
17236;DHT22;8734;59.272;17.780;2023-04-01T17:29:08;2.50;99.90
17236;DHT22;8734;59.272;17.780;2023-04-01T17:31:53;2.50;99.90
17236;DHT22;8734;59.272;17.780;2023-04-01T17:34:52;2.50;99.90
17236;DHT22;8734;59.272;17.780;2023-04-01T17:37:36;2.30;99.90
17236;DHT22;8734;59.272;17.780;2023-04-01T17:40:26;2.30;99.90
17236;DHT22;8734;59.272;17.780;2023-04-01T17:43:01;2.20;99.90
17236;DHT22;8734;59.272;17.780;2023-04-01T17:45:37;2.10;99.90
17236;DHT22;8734;59.272;17.780;2023-04-01T17:48:21;2.00;99.90
17236;DHT22;8734;59.272;17.780;2023-04-01T17:51:13;2.00;99.90
17236;DHT22;8734;59.272;17.780;2023-04-01T17:53:53;1.90;99.90
17236;DHT22;8734;59.272;17.780;2023-04-01T17:56:33;1.90;99.90
17236;DHT22;8734;59.272;17.780;2023-04-01T17:59:09;1.80;99.90
17236;DHT22;8734;59.272;17.780;2023-04-01T18:01:47;1.70;99.90
17236;DHT22;8734;59.272;17.780;2023-04-01T18:04:36;1.70;99.90
17236;DHT22;8734;59.272;17.780;2023-04-01T18:07:29;1.70;99.90
17236;DHT22;8734;59.272;17.780;2023-04-01T18:10:12;1.60;99.90
17236;DHT22;8734;59.272;17.780;2023-04-01T18:13:00;1.50;99.90
17236;DHT22;8734;59.272;17.780;2023-04-01T18:15:37;1.50;99.90
17236;DHT22;8734;59.272;17.780;2023-04-01T18:18:28;1.40;99.90